MAPA DE AEROPUERTO

INFORMACIÓN METAR y TAF

METAR FOR EBBR
ADDS - METARS form results

(0429 UTC 10 May 2021)
Data provider http://aviationweather.gov/metar/data/
 
METAR text: EBBR 100420Z 20009KT 9999 FEW022 15/12 Q0999 TEMPO 4500 SHRA RA BKN014TCU
Conditions at: EBBR (BRUSSELS NATIONA, BE) observed 0420 UTC 10 May 2021
Temperature: 15.0°C (59°F)
Dewpoint: 12.0°C (54°F) [RH = 82%]
Pressure (altimeter): 29.50 inches Hg (999.0 mb)
Winds: from the SSW (200 degrees) at 10 MPH (9 knots; 4.6 m/s)
Visibility: 6 or more miles (10+ km)
Ceiling: at least 12,000 feet AGL
Clouds: few clouds at 2200 feet AGL
Weather: no significant weather observed at this time

METAR text: EBBR 100350Z 22016G27KT 180V240 9999 -RA SCT022 15/12 Q0999 TEMPO 4500 SHRA RA BKN014TCU
Conditions at: EBBR (BRUSSELS NATIONA, BE) observed 0350 UTC 10 May 2021
Temperature: 15.0°C (59°F)
Dewpoint: 12.0°C (54°F) [RH = 82%]
Pressure (altimeter): 29.50 inches Hg (999.0 mb)
Winds: from the SW (220 degrees) at 18 MPH (16 knots; 8.2 m/s)
gusting to 31 MPH (27 knots; 13.9 m/s)
Visibility: 6 or more miles (10+ km)
Ceiling: at least 12,000 feet AGL
Clouds: scattered clouds at 2200 feet AGL
Weather: -RA  (light rain)

Forecast for: EBBR (BRUSSELS NATIONA, BE)
Text: TAF EBBR 092320Z 1000/1106 14006KT CAVOK
Forecast period: 0000 to 0400 UTC 10 May 2021
Forecast type: FROM: standard forecast or significant change
Winds: from the SE (140 degrees) at 7 MPH (6 knots; 3.1 m/s)
Visibility: 6 or more miles (10+ km)
Ceiling: unknown
Clouds: missing
Weather: NSW  (no significant weather)
Text: BECMG 1004/1006 20016G27KT
Forecast period: 0400 to 0700 UTC 10 May 2021
Forecast type: BECOMING: Conditions expected to become as follows by 0600 UTC 10 May 2021
Winds: from the SSW (200 degrees) at 18 MPH (16 knots; 8.2 m/s)
gusting to 31 MPH (27 knots; 13.9 m/s)
Visibility: 6 or more miles (10+ km)
Ceiling: unknown
Clouds: missing
Weather: NSW  (no significant weather)
Text: BECMG 1007/1009 21013KT
Forecast period: 0700 UTC 10 May 2021 to 0600 UTC 11 May 2021
Forecast type: BECOMING: Conditions expected to become as follows by 0900 UTC 10 May 2021
Winds: from the SSW (210 degrees) at 15 MPH (13 knots; 6.7 m/s)
Visibility: 6 or more miles (10+ km)
Ceiling: unknown
Clouds: missing
Weather: NSW  (no significant weather)
Text: PROB40
Forecast period: 0700 to 0900 UTC 10 May 2021
Forecast type: TEMPORARY: The following changes expected for less than half the time period
Visibility: 2.49 miles (4.01 km)
Ceiling: 1300 feet AGL
Clouds: broken clouds at 1300 feet AGL
Weather: SHRA  (rain showers)
Text: TEMPO 1007/1009 4000 SHRA BKN013TCU
Forecast period: 1900 to 2300 UTC 10 May 2021
Forecast type: TEMPORARY: The following changes expected for less than half the time period
Winds: from the SE (140 degrees) at 7 MPH (6 knots; 3.1 m/s)
Visibility: missing
Ceiling: unknown
Clouds: missing
Weather: no significant weather forecast for this period